METAR AND TAF INFORMATION
METAR FOR LGRP
ADDS - METARS form results

(0629 UTC 30 September 2022)
Data provider http://aviationweather.gov/metar/data/
 
METAR text: LGRP 300620Z 10008KT 9999 SCT010 26/24 Q1014 NOSIG
Conditions at: LGRP (RHODES/DIAGORAS , GR) observed 0620 UTC 30 September 2022
Temperature: 26.0°C (79°F)
Dewpoint: 24.0°C (75°F) [RH = 89%]
Pressure (altimeter): 29.94 inches Hg (1014.0 mb)
Winds: from the E (100 degrees) at 9 MPH (8 knots; 4.1 m/s)
Visibility: 6 or more miles (10+ km)
Ceiling: at least 12,000 feet AGL
Clouds: scattered clouds at 1000 feet AGL
Weather: no significant weather observed at this time

METAR text: LGRP 300550Z 10008KT 9999 SCT010 26/24 Q1014 NOSIG
Conditions at: LGRP (RHODES/DIAGORAS , GR) observed 0550 UTC 30 September 2022
Temperature: 26.0°C (79°F)
Dewpoint: 24.0°C (75°F) [RH = 89%]
Pressure (altimeter): 29.94 inches Hg (1014.0 mb)
Winds: from the E (100 degrees) at 9 MPH (8 knots; 4.1 m/s)
Visibility: 6 or more miles (10+ km)
Ceiling: at least 12,000 feet AGL
Clouds: scattered clouds at 1000 feet AGL
Weather: no significant weather observed at this time

Forecast for: LGRP (RHODES/DIAGORAS , GR)
Text: TAF LGRP 300500Z 3006/0106 12010KT 9999 FEW015
Forecast period: 0600 to 1900 UTC 30 September 2022
Forecast type: FROM: standard forecast or significant change
Winds: from the ESE (120 degrees) at 12 MPH (10 knots; 5.1 m/s)
Visibility: 6 or more miles (10+ km)
Ceiling: at least 12,000 feet AGL
Clouds: few clouds at 1500 feet AGL
Weather: no significant weather forecast for this period
Text: BECMG 3019/3021 30012KT
Forecast period: 1900 UTC 30 September 2022 to 0600 UTC 01 October 2022
Forecast type: BECOMING: Conditions expected to become as follows by 2100 UTC 30 September 2022
Winds: from the WNW (300 degrees) at 14 MPH (12 knots; 6.2 m/s)
Visibility: 6 or more miles (10+ km)
Ceiling: at least 12,000 feet AGL
Clouds: few clouds at 1500 feet AGL
Weather: no significant weather forecast for this period

 AIRPORT MAP

 RUNWAY INFORMATION
Runway 07 Runway length 10846 ft Runway width 148 ft
Runway elevation 16 ft Runway displaced threshold 0 ft Runway heading 70
Runway 25 Runway length 10846 ft Runway width 148 ft
Runway elevation 17 ft Runway displaced threshold 0 ft Runway heading 250

 AIRPORT FREQUENCIES
Type A/G Name RDO Frequency 563.7 MHZ
Type APP Name RODOS APP Frequency 118.25 MHZ
Type ATIS Name ATIS Frequency 126.35 MHZ
Type GND Name GND Frequency 121.7 MHZ
Type TWR Name TWR Frequency 118.2 MHZ

 AIRPORT NEAR NAVIGATION AIDS
Type VOR-DME Name Paradisi Frequency 108600 KHZ
Type VOR-DME Name Rodos Frequency 115800 KHZ
Type TACAN Name Rodos Frequency 117400 KHZ
Type NDB Name Rodos Frequency 339 KHZ



Powered by Heron Airways VA. All Rights Reserved © 2009 [v2.6.2]